createdAt,value
2023-01-19T00:00:15.698Z,0.00
2023-01-19T00:01:15.598Z,0.00
2023-01-19T00:02:15.542Z,0.00
2023-01-19T00:03:15.480Z,0.00
2023-01-19T00:04:15.781Z,0.00
2023-01-19T00:05:15.481Z,0.00
2023-01-19T00:06:15.590Z,0.00
2023-01-19T00:07:15.696Z,0.00
2023-01-19T00:08:15.462Z,0.00
2023-01-19T00:09:15.734Z,0.00
2023-01-19T00:10:15.433Z,0.00
2023-01-19T00:11:15.425Z,0.00
2023-01-19T00:12:15.463Z,0.00
2023-01-19T00:13:15.393Z,0.00
2023-01-19T00:14:15.346Z,0.00
2023-01-19T00:15:15.372Z,0.00
2023-01-19T00:16:15.389Z,0.00
2023-01-19T00:17:15.313Z,0.00
2023-01-19T00:18:15.395Z,0.00
2023-01-19T00:19:15.283Z,0.00
2023-01-19T00:20:15.478Z,0.00
2023-01-19T00:21:15.314Z,0.00
2023-01-19T00:22:15.267Z,0.00
2023-01-19T00:23:15.261Z,0.00
2023-01-19T00:24:15.294Z,0.00
2023-01-19T00:25:15.216Z,0.00
2023-01-19T00:26:15.232Z,0.00
2023-01-19T00:27:15.436Z,0.00
2023-01-19T00:28:15.187Z,0.00
2023-01-19T00:29:15.154Z,0.00
2023-01-19T00:30:15.239Z,0.00
2023-01-19T00:31:15.213Z,0.00
2023-01-19T00:32:15.129Z,0.00
2023-01-19T00:33:15.164Z,0.00
2023-01-19T00:34:15.120Z,0.00
2023-01-19T00:35:15.392Z,0.00
2023-01-19T00:36:15.088Z,0.00
2023-01-19T00:37:15.073Z,0.00
2023-01-19T00:38:15.145Z,0.00
2023-01-19T00:39:15.044Z,0.00
2023-01-19T00:40:15.584Z,0.00
2023-01-19T00:41:15.031Z,0.00
2023-01-19T00:42:15.867Z,0.00
2023-01-19T00:43:14.997Z,0.00
2023-01-19T00:44:15.288Z,0.00
2023-01-19T00:45:14.968Z,0.00
2023-01-19T00:46:14.969Z,0.00
2023-01-19T00:47:15.212Z,0.00
2023-01-19T00:48:16.292Z,0.00
2023-01-19T00:49:14.920Z,0.00
2023-01-19T00:50:14.936Z,0.00
2023-01-19T00:51:14.917Z,0.00
2023-01-19T00:52:14.911Z,0.00
2023-01-19T00:53:14.882Z,0.00
2023-01-19T00:54:14.840Z,0.00
2023-01-19T00:55:18.937Z,0.00
2023-01-19T00:56:14.881Z,0.00
2023-01-19T00:57:14.847Z,0.00
2023-01-19T00:58:14.838Z,0.00
2023-01-19T00:59:14.830Z,0.00
2023-01-19T01:00:14.820Z,0.00
2023-01-19T01:01:14.865Z,0.00
2023-01-19T01:02:14.978Z,0.00
2023-01-19T01:03:14.772Z,0.00
2023-01-19T01:04:14.794Z,0.00
2023-01-19T01:05:14.785Z,0.00
2023-01-19T01:06:14.971Z,0.00
2023-01-19T01:07:14.723Z,0.00
2023-01-19T01:08:14.702Z,0.00
2023-01-19T01:09:14.706Z,0.00
2023-01-19T01:10:15.685Z,0.00
2023-01-19T01:11:14.667Z,0.00
2023-01-19T01:12:14.656Z,0.00
2023-01-19T01:13:23.652Z,0.00
2023-01-19T01:14:15.609Z,0.00
2023-01-19T01:15:14.625Z,0.00
2023-01-19T01:16:14.721Z,0.00
2023-01-19T01:17:14.592Z,0.00
2023-01-19T01:18:14.564Z,0.00
2023-01-19T01:19:14.621Z,0.00
2023-01-19T01:20:14.560Z,0.00
2023-01-19T01:21:14.796Z,0.00
2023-01-19T01:22:14.621Z,0.00
2023-01-19T01:23:14.526Z,0.00
2023-01-19T01:24:14.531Z,0.00
2023-01-19T01:25:14.474Z,0.00
2023-01-19T01:26:14.732Z,0.00
2023-01-19T01:27:14.443Z,0.00
2023-01-19T01:28:14.582Z,0.00
2023-01-19T01:29:14.439Z,0.00
2023-01-19T01:30:14.588Z,0.00
2023-01-19T01:31:14.752Z,0.00
2023-01-19T01:32:14.416Z,0.00
2023-01-19T01:33:14.388Z,0.00
2023-01-19T01:34:14.426Z,0.00
2023-01-19T01:35:14.359Z,0.00
2023-01-19T01:36:14.341Z,0.00
2023-01-19T01:37:14.326Z,0.00
2023-01-19T01:38:14.343Z,0.00
2023-01-19T01:39:14.316Z,0.00
2023-01-19T01:40:14.295Z,0.00
2023-01-19T01:41:14.532Z,0.00
2023-01-19T01:42:14.545Z,0.00
2023-01-19T01:43:14.250Z,0.00
2023-01-19T01:44:14.250Z,0.00
2023-01-19T01:45:14.620Z,0.00
2023-01-19T01:46:14.267Z,0.00
2023-01-19T01:47:14.207Z,0.00
2023-01-19T01:48:14.192Z,0.00
2023-01-19T01:49:14.174Z,0.00
2023-01-19T01:50:14.180Z,0.00
2023-01-19T01:51:14.456Z,0.00
2023-01-19T01:52:14.444Z,0.00
2023-01-19T01:53:14.455Z,0.00
2023-01-19T01:54:14.112Z,0.00
2023-01-19T01:55:14.121Z,0.00
2023-01-19T01:56:14.096Z,0.00
2023-01-19T01:57:14.076Z,0.00
2023-01-19T01:58:14.091Z,0.00
2023-01-19T01:59:14.104Z,0.00
2023-01-19T02:00:14.331Z,0.00
2023-01-19T02:01:14.365Z,0.00
2023-01-19T02:02:14.020Z,0.00
2023-01-19T02:03:14.006Z,0.00
2023-01-19T02:04:14.008Z,0.00
2023-01-19T02:05:13.990Z,0.00
2023-01-19T02:06:14.259Z,0.00
2023-01-19T02:07:13.960Z,0.00
2023-01-19T02:08:14.207Z,0.00
2023-01-19T02:09:13.943Z,0.00
2023-01-19T02:10:13.998Z,0.00
2023-01-19T02:11:13.915Z,0.00
2023-01-19T02:12:13.980Z,0.00
2023-01-19T02:13:14.157Z,0.00
2023-01-19T02:14:13.866Z,0.00
2023-01-19T02:15:14.146Z,0.00
2023-01-19T02:16:14.108Z,0.00
2023-01-19T02:17:13.853Z,0.00
2023-01-19T02:18:13.886Z,0.00
2023-01-19T02:19:13.800Z,0.00
2023-01-19T02:20:13.799Z,0.00
2023-01-19T02:21:13.792Z,0.00
2023-01-19T02:22:13.757Z,0.00
2023-01-19T02:23:13.766Z,0.00
2023-01-19T02:24:13.783Z,0.00
2023-01-19T02:25:13.757Z,0.00
2023-01-19T02:26:13.757Z,0.00
2023-01-19T02:27:13.722Z,0.00
2023-01-19T02:28:13.687Z,0.00
2023-01-19T02:29:13.681Z,0.00
2023-01-19T02:30:13.681Z,0.00
2023-01-19T02:31:13.660Z,0.00
2023-01-19T02:32:13.641Z,0.00
2023-01-19T02:33:13.884Z,0.00
2023-01-19T02:34:13.634Z,0.00
2023-01-19T02:35:13.632Z,0.00
2023-01-19T02:36:20.840Z,0.00
2023-01-19T02:37:13.626Z,0.00
2023-01-19T02:38:13.892Z,0.00
2023-01-19T02:39:13.555Z,0.00
2023-01-19T02:40:13.565Z,0.00
2023-01-19T02:41:13.558Z,0.00
2023-01-19T02:42:13.578Z,0.00
2023-01-19T02:43:13.529Z,0.00
2023-01-19T02:44:13.535Z,0.00
2023-01-19T02:45:13.505Z,0.00
2023-01-19T02:46:13.543Z,0.00
2023-01-19T02:47:13.485Z,0.00
2023-01-19T02:48:13.443Z,0.00
2023-01-19T02:49:13.422Z,0.00
2023-01-19T02:50:13.695Z,0.00
2023-01-19T02:51:13.457Z,0.00
2023-01-19T02:52:13.383Z,0.00
2023-01-19T02:53:13.469Z,0.00
2023-01-19T02:54:13.418Z,0.00
2023-01-19T02:55:15.130Z,0.00
2023-01-19T02:56:16.119Z,0.00
2023-01-19T02:57:13.339Z,0.00
2023-01-19T02:58:13.339Z,0.00
2023-01-19T02:59:13.423Z,0.00
2023-01-19T03:00:13.304Z,0.00
2023-01-19T03:01:13.449Z,0.00
2023-01-19T03:02:13.565Z,0.00
2023-01-19T03:03:13.266Z,0.00
2023-01-19T03:04:13.268Z,0.00
2023-01-19T03:05:13.483Z,0.00
2023-01-19T03:06:13.241Z,0.00
2023-01-19T03:07:13.197Z,0.00
2023-01-19T03:08:13.193Z,0.00
2023-01-19T03:09:13.203Z,0.00
2023-01-19T03:10:13.179Z,0.00
2023-01-19T03:11:13.518Z,0.00
2023-01-19T03:12:13.436Z,0.00
2023-01-19T03:13:13.167Z,0.00
2023-01-19T03:14:13.146Z,0.00
2023-01-19T03:15:13.113Z,0.00
2023-01-19T03:16:13.203Z,0.00
2023-01-19T03:17:13.119Z,0.00
2023-01-19T03:18:13.080Z,0.00
2023-01-19T03:19:13.082Z,0.00
2023-01-19T03:20:13.078Z,0.00
2023-01-19T03:21:13.041Z,0.00
2023-01-19T03:22:13.053Z,0.00
2023-01-19T03:23:13.034Z,0.00
2023-01-19T03:24:13.310Z,0.00
2023-01-19T03:25:12.983Z,0.00
2023-01-19T03:26:13.011Z,0.00
2023-01-19T03:27:13.233Z,0.00
2023-01-19T03:28:12.972Z,0.00
2023-01-19T03:29:12.969Z,0.00
2023-01-19T03:30:12.946Z,0.00
2023-01-19T03:31:12.974Z,0.00
2023-01-19T03:32:12.895Z,0.00
2023-01-19T03:33:12.894Z,0.00
2023-01-19T03:34:13.168Z,0.00
2023-01-19T03:35:12.870Z,0.00
2023-01-19T03:36:12.870Z,0.00
2023-01-19T03:37:13.167Z,0.00
2023-01-19T03:38:12.868Z,0.00
2023-01-19T03:39:12.829Z,0.00
2023-01-19T03:40:13.096Z,0.00
2023-01-19T03:41:12.800Z,0.00
2023-01-19T03:42:12.786Z,0.00
2023-01-19T03:43:12.760Z,0.00
2023-01-19T03:44:12.768Z,0.00
2023-01-19T03:45:12.762Z,0.00
2023-01-19T03:46:12.798Z,0.00
2023-01-19T03:47:13.047Z,0.00
2023-01-19T03:48:12.752Z,0.00
2023-01-19T03:49:12.705Z,0.00
2023-01-19T03:50:12.676Z,0.00
2023-01-19T03:51:12.690Z,0.00
2023-01-19T03:52:12.635Z,0.00
2023-01-19T03:53:12.646Z,0.00
2023-01-19T03:54:13.023Z,0.00
2023-01-19T03:55:12.672Z,0.00
2023-01-19T03:56:12.613Z,0.00
2023-01-19T03:57:12.610Z,0.00
2023-01-19T03:58:12.609Z,0.00
2023-01-19T03:59:12.577Z,0.00
2023-01-19T04:00:12.544Z,0.00
2023-01-19T04:01:12.859Z,0.00
2023-01-19T04:02:12.624Z,0.00
2023-01-19T04:03:12.542Z,0.00
2023-01-19T04:04:12.523Z,0.00
2023-01-19T04:05:12.546Z,0.00
2023-01-19T04:06:12.492Z,0.00
2023-01-19T04:07:12.494Z,0.00
2023-01-19T04:08:12.470Z,0.00
2023-01-19T04:09:12.444Z,0.00
2023-01-19T04:10:12.427Z,0.00
2023-01-19T04:11:12.462Z,0.00
2023-01-19T04:12:12.428Z,0.00
2023-01-19T04:13:12.493Z,0.00
2023-01-19T04:14:12.389Z,0.00
2023-01-19T04:15:12.634Z,0.00
2023-01-19T04:16:12.455Z,0.00
2023-01-19T04:17:12.659Z,0.00
2023-01-19T04:18:12.329Z,0.00
2023-01-19T04:19:12.332Z,0.00
2023-01-19T04:20:12.313Z,0.00
2023-01-19T04:21:12.324Z,0.00
2023-01-19T04:22:12.282Z,0.00
2023-01-19T04:23:12.306Z,0.00
2023-01-19T04:24:12.265Z,0.00
2023-01-19T04:25:12.246Z,0.00
2023-01-19T04:26:12.276Z,0.00
2023-01-19T04:27:12.236Z,0.00
2023-01-19T04:28:12.229Z,0.00
2023-01-19T04:29:12.209Z,0.00
2023-01-19T04:30:12.217Z,0.00
2023-01-19T04:31:12.332Z,0.00
2023-01-19T04:32:12.157Z,0.00
2023-01-19T04:33:12.155Z,0.00
2023-01-19T04:34:12.139Z,0.00
2023-01-19T04:35:12.140Z,0.00
2023-01-19T04:36:12.110Z,0.00
2023-01-19T04:37:12.178Z,0.00
2023-01-19T04:38:12.139Z,0.00
2023-01-19T04:39:12.107Z,0.00
2023-01-19T04:40:12.082Z,0.00
2023-01-19T04:41:12.078Z,0.00
2023-01-19T04:42:12.053Z,0.00
2023-01-19T04:43:12.037Z,0.00
2023-01-19T04:44:12.321Z,0.00
2023-01-19T04:45:12.031Z,0.00
2023-01-19T04:46:12.035Z,0.00
2023-01-19T04:47:12.235Z,0.00
2023-01-19T04:48:12.002Z,0.00
2023-01-19T04:49:11.964Z,0.00
2023-01-19T04:50:11.961Z,0.00
2023-01-19T04:51:11.940Z,0.00
2023-01-19T04:52:11.934Z,0.00
2023-01-19T04:53:11.891Z,0.00
2023-01-19T04:54:11.863Z,0.00
2023-01-19T04:55:11.891Z,0.00
2023-01-19T04:56:11.860Z,0.00
2023-01-19T04:57:11.844Z,0.00
2023-01-19T04:58:11.844Z,0.00
2023-01-19T04:59:12.108Z,0.00
2023-01-19T05:00:11.830Z,0.00
2023-01-19T05:01:11.904Z,0.00
2023-01-19T05:02:11.836Z,0.00
2023-01-19T05:03:11.828Z,0.00
2023-01-19T05:04:12.036Z,0.00
2023-01-19T05:05:11.777Z,0.00
2023-01-19T05:06:11.745Z,0.00
2023-01-19T05:07:11.755Z,0.00
2023-01-19T05:08:11.935Z,0.00
2023-01-19T05:09:11.700Z,0.00
2023-01-19T05:10:11.703Z,0.00
2023-01-19T05:11:11.992Z,0.00
2023-01-19T05:12:11.677Z,0.00
2023-01-19T05:13:11.640Z,0.00
2023-01-19T05:14:11.694Z,0.00
2023-01-19T05:15:11.716Z,0.00
2023-01-19T05:16:12.479Z,0.00
2023-01-19T05:17:11.618Z,0.00
2023-01-19T05:18:11.610Z,0.00
2023-01-19T05:19:12.213Z,0.00
2023-01-19T05:20:11.569Z,0.00
2023-01-19T05:21:11.588Z,0.00
2023-01-19T05:22:11.525Z,0.00
2023-01-19T05:23:11.560Z,0.00
2023-01-19T05:24:11.817Z,0.00
2023-01-19T05:25:11.535Z,0.00
2023-01-19T05:26:11.526Z,0.00
2023-01-19T05:27:11.490Z,0.00
2023-01-19T05:28:11.468Z,0.00
2023-01-19T05:29:11.443Z,0.00
2023-01-19T05:30:11.445Z,0.00
2023-01-19T05:31:16.900Z,0.00
2023-01-19T05:32:11.443Z,0.00
2023-01-19T05:33:11.391Z,0.00
2023-01-19T05:34:11.683Z,0.00
2023-01-19T05:35:11.426Z,0.00
2023-01-19T05:36:11.448Z,0.00
2023-01-19T05:37:11.352Z,0.00
2023-01-19T05:38:11.335Z,0.00
2023-01-19T05:39:11.364Z,0.00
2023-01-19T05:40:11.293Z,0.00
2023-01-19T05:41:11.332Z,0.00
2023-01-19T05:42:11.290Z,0.00
2023-01-19T05:43:11.281Z,0.00
2023-01-19T05:44:11.257Z,0.00
2023-01-19T05:45:11.244Z,0.00
2023-01-19T05:46:11.256Z,0.00
2023-01-19T05:47:11.210Z,0.00
2023-01-19T05:48:11.247Z,0.00
2023-01-19T05:49:11.224Z,0.00
2023-01-19T05:50:11.178Z,0.00
2023-01-19T05:51:11.198Z,0.00
2023-01-19T05:52:11.152Z,0.00
2023-01-19T05:53:11.228Z,0.00
2023-01-19T05:54:11.394Z,0.00
2023-01-19T05:55:11.125Z,0.00
2023-01-19T05:56:11.135Z,0.00
2023-01-19T05:57:11.101Z,0.00
2023-01-19T05:58:11.355Z,0.00
2023-01-19T05:59:11.353Z,0.00
2023-01-19T06:00:11.109Z,0.00
2023-01-19T06:01:11.123Z,0.00
2023-01-19T06:02:11.160Z,0.00
2023-01-19T06:03:11.079Z,0.00
2023-01-19T06:04:11.033Z,0.00
2023-01-19T06:05:11.012Z,0.00
2023-01-19T06:06:11.020Z,0.00
2023-01-19T06:07:10.975Z,0.00
2023-01-19T06:08:10.981Z,0.00
2023-01-19T06:09:11.261Z,0.00
2023-01-19T06:10:10.964Z,0.00
2023-01-19T06:11:10.943Z,0.00
2023-01-19T06:12:10.912Z,0.00
2023-01-19T06:13:10.936Z,0.00
2023-01-19T06:14:10.880Z,0.00
2023-01-19T06:15:11.187Z,0.00
2023-01-19T06:16:10.915Z,0.00
2023-01-19T06:17:10.859Z,0.00
2023-01-19T06:18:10.840Z,0.00
2023-01-19T06:19:10.850Z,0.00
2023-01-19T06:20:10.839Z,0.00
2023-01-19T06:21:10.852Z,0.00
2023-01-19T06:22:10.785Z,0.00
2023-01-19T06:23:10.800Z,0.00
2023-01-19T06:24:11.245Z,0.00
2023-01-19T06:25:10.810Z,0.00
2023-01-19T06:26:11.002Z,0.00
2023-01-19T06:27:10.750Z,0.00
2023-01-19T06:28:10.731Z,0.00
2023-01-19T06:29:10.730Z,0.00
2023-01-19T06:30:10.685Z,0.00
2023-01-19T06:31:10.755Z,0.00
2023-01-19T06:32:10.677Z,0.00
2023-01-19T06:33:10.681Z,0.00
2023-01-19T06:34:10.666Z,0.00
2023-01-19T06:35:10.633Z,0.00
2023-01-19T06:36:10.619Z,0.00
2023-01-19T06:37:10.627Z,0.00
2023-01-19T06:38:10.595Z,0.00
2023-01-19T06:39:10.875Z,0.00
2023-01-19T06:40:11.121Z,0.00
2023-01-19T06:41:10.572Z,0.00
2023-01-19T06:42:10.780Z,0.00
2023-01-19T06:43:10.523Z,0.00
2023-01-19T06:44:10.745Z,0.00
2023-01-19T06:45:10.512Z,0.00
2023-01-19T06:46:10.853Z,0.00
2023-01-19T06:47:15.494Z,0.00
2023-01-19T06:48:11.488Z,0.00
2023-01-19T06:49:13.221Z,0.00
2023-01-19T06:50:10.454Z,0.00
2023-01-19T06:51:10.461Z,0.00
2023-01-19T06:52:10.433Z,0.00
2023-01-19T06:53:10.435Z,0.00
2023-01-19T06:54:10.430Z,0.00
2023-01-19T06:55:10.397Z,5.62
2023-01-19T06:56:10.381Z,5.62
2023-01-19T06:57:10.651Z,5.62
2023-01-19T06:58:10.335Z,5.62
2023-01-19T06:59:10.345Z,5.62
2023-01-19T07:00:10.304Z,5.62
2023-01-19T07:01:10.415Z,5.62
2023-01-19T07:02:26.429Z,5.62
2023-01-19T07:03:11.312Z,11.25
2023-01-19T07:04:10.293Z,11.25
2023-01-19T07:05:10.264Z,11.25
2023-01-19T07:06:10.865Z,11.25
2023-01-19T07:07:10.224Z,11.25
2023-01-19T07:08:10.453Z,16.88
2023-01-19T07:09:10.241Z,16.88
2023-01-19T07:10:10.252Z,16.88
2023-01-19T07:11:26.217Z,16.88
2023-01-19T07:12:11.266Z,22.50
2023-01-19T07:13:10.151Z,22.50
2023-01-19T07:14:14.036Z,22.50
2023-01-19T07:15:10.131Z,22.50
2023-01-19T07:16:10.170Z,28.12
2023-01-19T07:17:10.115Z,28.12
2023-01-19T07:18:10.099Z,28.12
2023-01-19T07:19:10.074Z,33.75
2023-01-19T07:20:10.066Z,33.75
2023-01-19T07:21:10.061Z,33.75
2023-01-19T07:22:10.044Z,39.38
2023-01-19T07:23:10.298Z,39.38
2023-01-19T07:24:10.024Z,39.38
2023-01-19T07:25:09.993Z,45.00
2023-01-19T07:26:10.017Z,45.00
2023-01-19T07:27:09.992Z,50.62
2023-01-19T07:28:10.931Z,50.62
2023-01-19T07:29:10.311Z,50.62
2023-01-19T07:30:09.984Z,56.25
2023-01-19T07:31:10.059Z,56.25
2023-01-19T07:32:09.915Z,56.25
2023-01-19T07:33:09.896Z,61.88
2023-01-19T07:34:11.719Z,61.88
2023-01-19T07:35:10.634Z,61.88
2023-01-19T07:36:09.904Z,61.88
2023-01-19T07:37:09.855Z,67.50
2023-01-19T07:38:09.839Z,67.50
2023-01-19T07:39:09.860Z,73.12
2023-01-19T07:40:09.833Z,73.12
2023-01-19T07:41:10.100Z,73.12
2023-01-19T07:42:09.798Z,78.75
2023-01-19T07:43:09.778Z,78.75
2023-01-19T07:44:10.004Z,84.38
2023-01-19T07:45:09.800Z,84.38
2023-01-19T07:46:09.896Z,90.00
2023-01-19T07:47:09.748Z,90.00
2023-01-19T07:48:09.964Z,90.00
2023-01-19T07:49:09.751Z,95.62
2023-01-19T07:50:09.703Z,95.62
2023-01-19T07:51:12.631Z,95.62
2023-01-19T07:52:09.719Z,101.25
2023-01-19T07:53:09.653Z,101.25
2023-01-19T07:54:09.652Z,101.25
2023-01-19T07:55:09.661Z,101.25
2023-01-19T07:56:09.631Z,101.25
2023-01-19T07:57:09.636Z,101.25
2023-01-19T07:58:09.600Z,106.88
2023-01-19T07:59:09.811Z,106.88
2023-01-19T08:00:09.580Z,112.50
2023-01-19T08:01:09.786Z,112.50
2023-01-19T08:02:09.656Z,112.50
2023-01-19T08:03:09.529Z,118.12
2023-01-19T08:04:09.599Z,118.12
2023-01-19T08:05:10.743Z,118.12
2023-01-19T08:06:09.606Z,123.75
2023-01-19T08:07:09.502Z,123.75
2023-01-19T08:08:09.458Z,123.75
2023-01-19T08:09:09.451Z,129.38
2023-01-19T08:10:09.463Z,129.38
2023-01-19T08:11:13.690Z,129.38
2023-01-19T08:12:11.428Z,129.38
2023-01-19T08:13:09.399Z,135.00
2023-01-19T08:14:09.421Z,135.00
2023-01-19T08:15:09.617Z,135.00
2023-01-19T08:16:09.447Z,140.62
2023-01-19T08:17:09.362Z,146.25
2023-01-19T08:18:09.364Z,146.25
2023-01-19T08:19:09.570Z,151.88
2023-01-19T08:20:09.324Z,151.88
2023-01-19T08:21:09.317Z,151.88
2023-01-19T08:22:09.300Z,151.88
2023-01-19T08:23:09.279Z,157.50
2023-01-19T08:24:09.345Z,157.50
2023-01-19T08:25:09.257Z,157.50
2023-01-19T08:26:09.245Z,157.50
2023-01-19T08:27:09.255Z,163.12
2023-01-19T08:28:09.567Z,163.12
2023-01-19T08:29:09.223Z,163.12
2023-01-19T08:30:09.199Z,168.75
2023-01-19T08:31:19.780Z,168.75
2023-01-19T08:32:10.275Z,174.38
2023-01-19T08:33:09.182Z,174.38
2023-01-19T08:34:09.142Z,174.38
2023-01-19T08:35:09.141Z,174.38
2023-01-19T08:36:09.406Z,180.00
2023-01-19T08:37:09.145Z,180.00
2023-01-19T08:38:09.375Z,185.62
2023-01-19T08:39:09.102Z,185.62
2023-01-19T08:40:09.372Z,185.62
2023-01-19T08:41:09.114Z,191.25
2023-01-19T08:42:09.052Z,191.25
2023-01-19T08:43:09.028Z,191.25
2023-01-19T08:44:09.024Z,191.25
2023-01-19T08:45:09.001Z,191.25
2023-01-19T08:46:09.062Z,191.25
2023-01-19T08:47:09.007Z,191.25
2023-01-19T08:48:08.971Z,196.88
2023-01-19T08:49:08.943Z,196.88
2023-01-19T08:50:08.958Z,202.50
2023-01-19T08:51:08.969Z,202.50
2023-01-19T08:52:09.215Z,202.50
2023-01-19T08:53:08.900Z,202.50
2023-01-19T08:54:08.940Z,202.50
2023-01-19T08:55:09.025Z,208.12
2023-01-19T08:56:08.924Z,208.12
2023-01-19T08:57:08.896Z,213.75
2023-01-19T08:58:08.925Z,213.75
2023-01-19T08:59:11.364Z,213.75
2023-01-19T09:00:08.829Z,219.38
2023-01-19T09:01:08.879Z,219.38
2023-01-19T09:02:08.824Z,219.38
2023-01-19T09:03:08.831Z,225.00
2023-01-19T09:04:08.786Z,225.00
2023-01-19T09:05:08.772Z,230.62
2023-01-19T09:06:08.817Z,230.62
2023-01-19T09:07:08.732Z,230.62
2023-01-19T09:08:08.780Z,236.25
2023-01-19T09:09:08.708Z,236.25
2023-01-19T09:10:08.704Z,241.88
2023-01-19T09:11:08.701Z,241.88
2023-01-19T09:12:08.657Z,241.88
2023-01-19T09:13:08.724Z,241.88
2023-01-19T09:14:08.680Z,241.88
2023-01-19T09:15:08.662Z,247.50
2023-01-19T09:16:08.982Z,247.50
2023-01-19T09:17:08.595Z,247.50
2023-01-19T09:18:09.552Z,253.12
2023-01-19T09:19:08.575Z,258.75
2023-01-19T09:20:08.591Z,258.75
2023-01-19T09:21:08.589Z,264.38
2023-01-19T09:22:08.609Z,264.38
2023-01-19T09:23:08.531Z,264.38
2023-01-19T09:24:08.520Z,264.38
2023-01-19T09:25:08.548Z,264.38
2023-01-19T09:26:08.517Z,264.38
2023-01-19T09:27:08.502Z,270.00
2023-01-19T09:28:08.525Z,270.00
2023-01-19T09:29:08.483Z,275.62
2023-01-19T09:30:08.703Z,275.62
2023-01-19T09:31:08.621Z,281.25
2023-01-19T09:32:08.438Z,281.25
2023-01-19T09:33:08.430Z,281.25
2023-01-19T09:34:08.398Z,281.25
2023-01-19T09:35:08.388Z,281.25
2023-01-19T09:36:08.393Z,286.88
2023-01-19T09:37:08.352Z,286.88
2023-01-19T09:38:08.355Z,286.88
2023-01-19T09:39:08.322Z,292.50
2023-01-19T09:40:08.419Z,292.50
2023-01-19T09:41:08.418Z,292.50
2023-01-19T09:42:08.558Z,292.50
2023-01-19T09:43:08.295Z,292.50
2023-01-19T09:44:08.339Z,292.50
2023-01-19T09:45:08.300Z,292.50
2023-01-19T09:46:08.322Z,292.50
2023-01-19T09:47:08.511Z,292.50
2023-01-19T09:48:08.236Z,292.50
2023-01-19T09:49:08.436Z,298.12
2023-01-19T09:50:08.211Z,298.12
2023-01-19T09:51:08.220Z,298.12
2023-01-19T09:52:08.174Z,298.12
2023-01-19T09:53:08.164Z,298.12
2023-01-19T09:54:08.533Z,298.12
2023-01-19T09:55:08.139Z,298.12
2023-01-19T09:56:08.181Z,298.12
2023-01-19T09:57:08.111Z,298.12
2023-01-19T09:58:08.148Z,298.12
2023-01-19T09:59:08.085Z,298.12
2023-01-19T10:00:08.090Z,303.75
2023-01-19T10:01:08.207Z,303.75
2023-01-19T10:02:08.051Z,303.75
2023-01-19T10:03:08.102Z,303.75
2023-01-19T10:04:08.038Z,303.75
2023-01-19T10:05:09.044Z,309.38
2023-01-19T10:06:08.018Z,309.38
2023-01-19T10:07:07.994Z,309.38
2023-01-19T10:08:07.972Z,309.38
2023-01-19T10:09:07.981Z,315.00
2023-01-19T10:10:07.979Z,315.00
2023-01-19T10:11:07.958Z,320.62
2023-01-19T10:12:07.943Z,320.62
2023-01-19T10:13:07.935Z,331.88
2023-01-19T10:14:09.557Z,326.25
2023-01-19T10:15:07.897Z,326.25
2023-01-19T10:16:07.926Z,331.88
2023-01-19T10:17:07.872Z,331.88
2023-01-19T10:18:07.897Z,331.88
2023-01-19T10:19:11.893Z,337.50
2023-01-19T10:20:07.857Z,337.50
2023-01-19T10:21:07.902Z,337.50
2023-01-19T10:22:07.809Z,343.12
2023-01-19T10:23:07.784Z,343.12
2023-01-19T10:24:08.083Z,343.12
2023-01-19T10:25:07.831Z,343.12
2023-01-19T10:26:08.135Z,343.12
2023-01-19T10:27:07.746Z,343.12
2023-01-19T10:28:07.738Z,343.12
2023-01-19T10:29:07.722Z,343.12
2023-01-19T10:30:07.722Z,343.12
2023-01-19T10:31:07.757Z,343.12
2023-01-19T10:32:07.759Z,343.12
2023-01-19T10:33:07.665Z,348.75
2023-01-19T10:34:07.684Z,343.12
2023-01-19T10:35:07.631Z,343.12
2023-01-19T10:36:07.747Z,343.12
2023-01-19T10:37:07.630Z,343.12
2023-01-19T10:38:07.668Z,348.75
2023-01-19T10:39:07.617Z,343.12
2023-01-19T10:40:07.702Z,348.75
2023-01-19T10:41:07.569Z,348.75
2023-01-19T10:42:07.626Z,348.75
2023-01-19T10:43:07.549Z,348.75
2023-01-19T10:44:07.613Z,348.75
2023-01-19T10:45:07.588Z,348.75
2023-01-19T10:46:07.590Z,348.75
2023-01-19T10:47:07.750Z,354.38
2023-01-19T10:48:07.888Z,354.38
2023-01-19T10:49:07.462Z,354.38
2023-01-19T10:50:07.742Z,354.38
2023-01-19T10:51:07.796Z,354.38
2023-01-19T10:52:07.431Z,360.00
2023-01-19T10:53:07.429Z,354.38
2023-01-19T10:54:07.438Z,360.00
2023-01-19T10:55:07.539Z,360.00
2023-01-19T10:56:07.428Z,360.00
2023-01-19T10:57:07.381Z,360.00
2023-01-19T10:58:07.433Z,360.00
2023-01-19T10:59:07.436Z,360.00
2023-01-19T11:00:07.410Z,360.00
2023-01-19T11:01:07.417Z,360.00
2023-01-19T11:02:07.465Z,360.00
2023-01-19T11:03:07.414Z,360.00
2023-01-19T11:04:08.030Z,360.00
2023-01-19T11:05:07.275Z,360.00
2023-01-19T11:06:07.281Z,360.00
2023-01-19T11:07:07.240Z,360.00
2023-01-19T11:08:07.313Z,360.00
2023-01-19T11:09:07.250Z,360.00
2023-01-19T11:10:07.270Z,360.00
2023-01-19T11:11:07.202Z,360.00
2023-01-19T11:12:07.237Z,360.00
2023-01-19T11:13:07.182Z,360.00
2023-01-19T11:14:07.173Z,360.00
2023-01-19T11:15:07.169Z,360.00
2023-01-19T11:16:07.205Z,360.00
2023-01-19T11:17:07.117Z,354.38
2023-01-19T11:18:07.277Z,360.00
2023-01-19T11:19:07.118Z,360.00
2023-01-19T11:20:07.541Z,365.62
2023-01-19T11:21:07.148Z,360.00
2023-01-19T11:22:07.383Z,354.38
2023-01-19T11:23:07.070Z,354.38
2023-01-19T11:24:07.125Z,354.38
2023-01-19T11:25:07.062Z,354.38
2023-01-19T11:26:07.100Z,354.38
2023-01-19T11:27:07.000Z,354.38
2023-01-19T11:28:07.053Z,354.38
2023-01-19T11:29:06.993Z,348.75
2023-01-19T11:30:06.982Z,348.75
2023-01-19T11:31:07.008Z,348.75
2023-01-19T11:32:07.121Z,348.75
2023-01-19T11:33:06.941Z,348.75
2023-01-19T11:34:06.954Z,348.75
2023-01-19T11:35:07.009Z,348.75
2023-01-19T11:36:06.944Z,343.12
2023-01-19T11:37:06.970Z,348.75
2023-01-19T11:38:07.112Z,348.75
2023-01-19T11:39:06.867Z,348.75
2023-01-19T11:40:06.887Z,348.75
2023-01-19T11:41:06.845Z,343.12
2023-01-19T11:42:06.818Z,343.12
2023-01-19T11:43:06.820Z,343.12
2023-01-19T11:44:06.791Z,343.12
2023-01-19T11:45:06.836Z,343.12
2023-01-19T11:46:06.874Z,343.12
2023-01-19T11:47:07.012Z,337.50
2023-01-19T11:48:06.753Z,337.50
2023-01-19T11:49:06.747Z,337.50
2023-01-19T11:50:06.737Z,337.50
2023-01-19T11:51:06.742Z,337.50
2023-01-19T11:52:06.750Z,337.50
2023-01-19T11:53:06.691Z,337.50
2023-01-19T11:54:06.662Z,337.50
2023-01-19T11:55:06.705Z,331.88
2023-01-19T11:56:06.714Z,331.88
2023-01-19T11:57:06.639Z,331.88
2023-01-19T11:58:06.640Z,331.88
2023-01-19T11:59:06.616Z,331.88
2023-01-19T12:00:06.590Z,331.88
2023-01-19T12:01:06.643Z,331.88
2023-01-19T12:02:06.602Z,331.88
2023-01-19T12:03:06.643Z,331.88
2023-01-19T12:04:06.679Z,331.88
2023-01-19T12:05:06.571Z,331.88
2023-01-19T12:06:06.635Z,331.88
2023-01-19T12:07:06.529Z,326.25
2023-01-19T12:08:07.134Z,326.25
2023-01-19T12:09:06.490Z,326.25
2023-01-19T12:10:06.473Z,326.25
2023-01-19T12:11:06.469Z,326.25
2023-01-19T12:12:06.452Z,326.25
2023-01-19T12:13:06.439Z,326.25
2023-01-19T12:14:06.425Z,326.25
2023-01-19T12:15:06.425Z,326.25
2023-01-19T12:16:06.431Z,326.25
2023-01-19T12:17:06.422Z,326.25
2023-01-19T12:18:06.351Z,326.25
2023-01-19T12:19:06.350Z,326.25
2023-01-19T12:20:06.338Z,326.25
2023-01-19T12:21:06.352Z,326.25
2023-01-19T12:22:06.298Z,320.62
2023-01-19T12:23:06.342Z,320.62
2023-01-19T12:24:06.580Z,320.62
2023-01-19T12:25:06.291Z,320.62
2023-01-19T12:26:06.272Z,326.25
2023-01-19T12:27:06.259Z,315.00
2023-01-19T12:28:06.226Z,315.00
2023-01-19T12:29:06.238Z,315.00
2023-01-19T12:30:06.216Z,315.00
2023-01-19T12:31:06.329Z,315.00
2023-01-19T12:32:06.190Z,315.00
2023-01-19T12:33:06.167Z,315.00
2023-01-19T12:34:06.393Z,309.38
2023-01-19T12:35:06.150Z,309.38
2023-01-19T12:36:06.150Z,309.38
2023-01-19T12:37:06.149Z,309.38
2023-01-19T12:38:06.110Z,309.38
2023-01-19T12:39:06.117Z,315.00
2023-01-19T12:40:06.078Z,309.38
2023-01-19T12:41:06.127Z,309.38
2023-01-19T12:42:06.308Z,309.38
2023-01-19T12:43:06.102Z,303.75
2023-01-19T12:44:06.152Z,303.75
2023-01-19T12:45:06.023Z,303.75
2023-01-19T12:46:06.083Z,303.75
2023-01-19T12:47:06.019Z,303.75
2023-01-19T12:48:05.974Z,303.75
2023-01-19T12:49:05.992Z,298.12
2023-01-19T12:50:05.942Z,298.12
2023-01-19T12:51:06.013Z,298.12
2023-01-19T12:52:05.978Z,298.12
2023-01-19T12:53:05.940Z,298.12
2023-01-19T12:54:06.271Z,292.50
2023-01-19T12:55:05.959Z,292.50
2023-01-19T12:56:06.191Z,292.50